createdAt,value
2017-12-10T00:00:55.858Z,91.09
2017-12-10T00:03:23.341Z,89.04
2017-12-10T00:05:50.854Z,90.42
2017-12-10T00:08:18.368Z,90.10
2017-12-10T00:10:46.569Z,89.52
2017-12-10T00:13:14.126Z,90.52
2017-12-10T00:15:41.599Z,92.00
2017-12-10T00:18:09.070Z,90.65
2017-12-10T00:20:36.537Z,89.80
2017-12-10T00:23:04.405Z,90.03
2017-12-10T00:25:31.906Z,88.28
2017-12-10T00:27:59.398Z,88.98
2017-12-10T00:30:27.161Z,88.69
2017-12-10T00:32:54.661Z,89.53
2017-12-10T00:35:22.145Z,88.70
2017-12-10T00:37:49.634Z,87.79
2017-12-10T00:40:17.129Z,88.04
2017-12-10T00:42:44.722Z,90.03
2017-12-10T00:45:12.719Z,87.25
2017-12-10T00:47:40.179Z,87.73
2017-12-10T00:50:07.653Z,87.53
2017-12-10T00:52:36.568Z,86.19
2017-12-10T00:55:04.947Z,85.92
2017-12-10T00:57:32.437Z,86.17
2017-12-10T00:59:59.907Z,86.14
2017-12-10T01:02:27.362Z,87.46
2017-12-10T01:04:54.939Z,85.75
2017-12-10T01:07:22.414Z,85.20
2017-12-10T01:09:49.900Z,83.87
2017-12-10T01:12:17.374Z,85.61
2017-12-10T01:14:45.590Z,86.19
2017-12-10T01:17:13.107Z,85.08
2017-12-10T01:19:40.896Z,85.99
2017-12-10T01:22:08.475Z,84.35
2017-12-10T01:24:36.003Z,83.98
2017-12-10T01:27:03.564Z,85.13
2017-12-10T01:29:31.328Z,86.74
2017-12-10T01:31:59.257Z,84.52
2017-12-10T01:34:26.757Z,84.58
2017-12-10T01:36:54.238Z,85.53
2017-12-10T01:39:21.741Z,84.94
2017-12-10T01:41:49.266Z,85.48
2017-12-10T01:44:16.784Z,84.68
2017-12-10T01:46:44.256Z,86.08
2017-12-10T01:49:12.226Z,85.34
2017-12-10T01:51:39.735Z,84.95
2017-12-10T01:54:07.588Z,84.64
2017-12-10T01:56:36.108Z,85.87
2017-12-10T01:59:03.574Z,84.29
2017-12-10T02:01:31.130Z,84.16
2017-12-10T02:03:58.617Z,84.65
2017-12-10T02:06:26.129Z,85.25
2017-12-10T02:08:53.955Z,84.00
2017-12-10T02:11:21.431Z,85.63
2017-12-10T02:13:48.902Z,87.07
2017-12-10T02:16:16.373Z,84.18
2017-12-10T02:18:43.978Z,84.92
2017-12-10T02:21:11.483Z,84.32
2017-12-10T02:23:38.945Z,85.69
2017-12-10T02:26:06.521Z,85.38
2017-12-10T02:28:35.107Z,85.50
2017-12-10T02:31:02.666Z,84.83
2017-12-10T02:33:30.194Z,86.26
2017-12-10T02:35:57.654Z,84.96
2017-12-10T02:38:25.130Z,86.55
2017-12-10T02:40:52.610Z,87.27
2017-12-10T02:43:20.082Z,86.03
2017-12-10T02:45:47.547Z,86.68
2017-12-10T02:48:15.185Z,86.36
2017-12-10T02:50:42.881Z,86.93
2017-12-10T02:53:10.342Z,85.41
2017-12-10T02:55:37.845Z,84.33
2017-12-10T02:58:05.310Z,86.12
2017-12-10T03:00:32.799Z,85.07
2017-12-10T03:03:00.562Z,86.82
2017-12-10T03:05:28.062Z,86.18
2017-12-10T03:07:55.573Z,85.09
2017-12-10T03:10:23.056Z,85.69
2017-12-10T03:12:50.680Z,86.75
2017-12-10T03:15:18.142Z,84.71
2017-12-10T03:17:45.616Z,84.11
2017-12-10T03:20:13.109Z,85.87
2017-12-10T03:22:40.597Z,85.91
2017-12-10T03:25:08.077Z,85.65
2017-12-10T03:27:35.537Z,86.90
2017-12-10T03:30:03.017Z,84.89
2017-12-10T03:32:30.474Z,85.60
2017-12-10T03:34:57.939Z,86.67
2017-12-10T03:37:25.414Z,86.33
2017-12-10T03:39:52.910Z,87.32
2017-12-10T03:42:20.374Z,85.73
2017-12-10T03:44:47.858Z,85.38
2017-12-10T03:47:15.325Z,86.06
2017-12-10T03:49:42.818Z,85.29
2017-12-10T03:52:10.293Z,85.60
2017-12-10T03:54:37.783Z,85.43
2017-12-10T03:57:05.289Z,85.19
2017-12-10T03:59:32.764Z,85.06
2017-12-10T04:02:00.229Z,85.45
2017-12-10T04:04:27.716Z,85.35
2017-12-10T04:06:55.294Z,86.09
2017-12-10T04:09:22.764Z,85.74
2017-12-10T04:11:50.245Z,85.98
2017-12-10T04:14:17.727Z,86.41
2017-12-10T04:16:45.223Z,86.36
2017-12-10T04:19:12.691Z,85.80
2017-12-10T04:21:40.192Z,86.54
2017-12-10T04:24:07.660Z,86.10
2017-12-10T04:26:35.131Z,86.06
2017-12-10T04:29:02.611Z,86.03
2017-12-10T04:31:30.153Z,86.38
2017-12-10T04:33:57.605Z,85.55
2017-12-10T04:36:25.105Z,87.10
2017-12-10T04:38:52.565Z,85.56
2017-12-10T04:41:20.042Z,86.54
2017-12-10T04:43:47.529Z,86.05
2017-12-10T04:46:15.013Z,86.30
2017-12-10T04:48:42.510Z,86.80
2017-12-10T04:51:09.995Z,86.28
2017-12-10T04:53:37.504Z,86.05
2017-12-10T04:56:04.974Z,86.33
2017-12-10T04:58:32.456Z,86.41
2017-12-10T05:00:59.936Z,87.03
2017-12-10T05:03:27.405Z,86.11
2017-12-10T05:05:54.914Z,87.05
2017-12-10T05:08:22.433Z,85.95
2017-12-10T05:10:49.912Z,85.31
2017-12-10T05:13:17.391Z,84.90
2017-12-10T05:15:44.893Z,85.77
2017-12-10T05:18:12.373Z,85.31
2017-12-10T05:20:40.032Z,85.38
2017-12-10T05:23:07.516Z,84.77
2017-12-10T05:25:35.009Z,84.85
2017-12-10T05:28:02.470Z,84.08
2017-12-10T05:30:30.157Z,85.74
2017-12-10T05:32:57.629Z,85.21
2017-12-10T05:35:25.114Z,86.57
2017-12-10T05:37:52.581Z,85.01
2017-12-10T05:40:20.049Z,85.26
2017-12-10T05:42:47.528Z,84.59
2017-12-10T05:45:15.012Z,85.52
2017-12-10T05:47:42.494Z,84.60
2017-12-10T05:50:10.013Z,84.95
2017-12-10T05:52:37.484Z,84.18
2017-12-10T05:55:04.962Z,84.48
2017-12-10T05:57:32.437Z,84.73
2017-12-10T05:59:59.958Z,84.04
2017-12-10T06:02:27.440Z,83.76
2017-12-10T06:04:54.949Z,84.11
2017-12-10T06:07:22.521Z,84.78
2017-12-10T06:09:49.974Z,83.55
2017-12-10T06:12:17.549Z,84.71
2017-12-10T06:14:45.068Z,84.16
2017-12-10T06:17:12.538Z,85.20
2017-12-10T06:19:40.024Z,84.15
2017-12-10T06:22:07.550Z,85.22
2017-12-10T06:24:35.037Z,85.15
2017-12-10T06:27:02.533Z,85.15
2017-12-10T06:29:30.022Z,86.09
2017-12-10T06:31:57.525Z,86.24
2017-12-10T06:34:25.042Z,85.42
2017-12-10T06:36:52.502Z,86.01
2017-12-10T06:39:19.958Z,84.90
2017-12-10T06:41:47.446Z,85.65
2017-12-10T06:44:14.928Z,85.09
2017-12-10T06:46:42.401Z,84.79
2017-12-10T06:49:09.880Z,84.52
2017-12-10T06:51:37.496Z,85.28
2017-12-10T06:54:04.971Z,85.89
2017-12-10T06:56:33.328Z,84.63
2017-12-10T06:59:00.809Z,85.95
2017-12-10T07:01:28.297Z,85.61
2017-12-10T07:03:55.800Z,84.77
2017-12-10T07:06:23.265Z,86.49
2017-12-10T07:08:50.721Z,84.81
2017-12-10T07:11:21.228Z,83.54
2017-12-10T07:13:48.715Z,84.39
2017-12-10T07:16:16.207Z,84.46
2017-12-10T07:18:43.689Z,85.09
2017-12-10T07:21:12.736Z,85.32
2017-12-10T07:23:40.243Z,84.43
2017-12-10T07:26:07.759Z,84.37
2017-12-10T07:28:35.227Z,85.03
2017-12-10T07:31:02.725Z,85.32
2017-12-10T07:33:30.350Z,85.15
2017-12-10T07:35:57.836Z,84.78
2017-12-10T07:38:25.760Z,83.30
2017-12-10T07:40:53.297Z,84.46
2017-12-10T07:43:20.790Z,84.31
2017-12-10T07:45:48.314Z,82.84
2017-12-10T07:48:16.762Z,83.59
2017-12-10T07:50:47.701Z,84.23
2017-12-10T07:53:15.171Z,83.38
2017-12-10T07:55:42.676Z,83.48
2017-12-10T07:58:10.257Z,82.93
2017-12-10T08:00:38.836Z,83.58
2017-12-10T08:03:06.298Z,83.71
2017-12-10T08:05:33.758Z,83.84
2017-12-10T08:08:01.238Z,85.02
2017-12-10T08:10:28.856Z,85.42
2017-12-10T08:12:56.441Z,85.41
2017-12-10T08:15:23.973Z,85.17
2017-12-10T08:17:51.502Z,86.33
2017-12-10T08:20:18.994Z,86.94
2017-12-10T08:22:46.484Z,87.24
2017-12-10T08:25:13.998Z,87.00
2017-12-10T08:27:41.517Z,86.65
2017-12-10T08:30:08.991Z,86.96
2017-12-10T08:32:36.476Z,87.99
2017-12-10T08:35:03.966Z,88.49
2017-12-10T08:37:32.872Z,88.18
2017-12-10T08:40:00.378Z,88.05
2017-12-10T08:42:27.892Z,87.59
2017-12-10T08:44:55.397Z,88.13
2017-12-10T08:47:22.889Z,87.91
2017-12-10T08:49:50.361Z,87.09
2017-12-10T08:52:17.884Z,86.20
2017-12-10T08:54:45.430Z,87.36
2017-12-10T08:57:12.938Z,87.21
2017-12-10T08:59:40.435Z,87.39
2017-12-10T09:02:07.943Z,86.76
2017-12-10T09:04:35.406Z,85.84
2017-12-10T09:07:03.012Z,86.75
2017-12-10T09:12:26.323Z,86.52
2017-12-10T09:14:53.816Z,85.27
2017-12-10T09:17:21.274Z,86.40
2017-12-10T09:19:48.758Z,86.87
2017-12-10T09:22:16.226Z,85.04
2017-12-10T09:24:43.731Z,85.57
2017-12-10T09:27:11.215Z,87.12
2017-12-10T09:29:38.666Z,85.96
2017-12-10T09:32:06.154Z,85.74
2017-12-10T09:34:33.614Z,84.75
2017-12-10T09:37:01.110Z,84.71
2017-12-10T09:39:28.577Z,83.78
2017-12-10T09:41:56.109Z,84.92
2017-12-10T09:44:23.556Z,84.17
2017-12-10T09:46:51.044Z,83.55
2017-12-10T09:49:18.556Z,83.11
2017-12-10T09:51:46.080Z,84.64
2017-12-10T09:54:13.669Z,84.58
2017-12-10T09:56:41.187Z,83.80
2017-12-10T09:59:08.668Z,82.95
2017-12-10T10:01:36.158Z,83.08
2017-12-10T10:04:03.656Z,83.44
2017-12-10T10:06:31.122Z,81.64
2017-12-10T10:11:48.871Z,82.17
2017-12-10T10:14:16.336Z,81.74
2017-12-10T10:16:43.862Z,81.56
2017-12-10T10:19:11.371Z,81.34
2017-12-10T10:21:38.884Z,80.33
2017-12-10T10:24:06.464Z,79.46
2017-12-10T10:26:34.010Z,81.58
2017-12-10T10:29:01.531Z,80.35
2017-12-10T10:31:29.040Z,80.51
2017-12-10T10:33:56.892Z,81.52
2017-12-10T10:36:24.382Z,81.32
2017-12-10T10:38:51.871Z,80.46
2017-12-10T10:41:19.354Z,81.81
2017-12-10T10:43:46.863Z,79.61
2017-12-10T10:46:14.356Z,79.23
2017-12-10T10:48:41.831Z,79.77
2017-12-10T10:51:09.356Z,79.28
2017-12-10T10:53:36.829Z,78.59
2017-12-10T10:56:04.336Z,79.64
2017-12-10T10:58:31.847Z,79.66
2017-12-10T11:00:59.423Z,81.27
2017-12-10T11:03:26.933Z,78.57
2017-12-10T11:05:54.420Z,80.86
2017-12-10T11:08:21.896Z,80.08
2017-12-10T11:10:49.381Z,78.57
2017-12-10T11:13:16.883Z,79.70
2017-12-10T11:15:44.620Z,79.51
2017-12-10T11:18:12.100Z,78.28
2017-12-10T11:20:39.595Z,79.29
2017-12-10T11:23:07.176Z,79.21
2017-12-10T11:25:34.716Z,79.25
2017-12-10T11:28:02.227Z,78.86
2017-12-10T11:30:29.707Z,79.33
2017-12-10T11:32:57.191Z,80.71
2017-12-10T11:35:24.696Z,80.54
2017-12-10T11:37:52.194Z,80.72
2017-12-10T11:40:19.692Z,80.91
2017-12-10T11:42:47.183Z,80.82
2017-12-10T11:45:14.693Z,79.87
2017-12-10T11:47:42.190Z,80.25
2017-12-10T11:50:09.691Z,80.08
2017-12-10T11:52:37.165Z,80.54
2017-12-10T11:55:04.648Z,79.60
2017-12-10T11:57:32.131Z,79.83
2017-12-10T11:59:59.616Z,79.91
2017-12-10T12:02:27.116Z,80.01
2017-12-10T12:04:54.620Z,80.16
2017-12-10T12:07:22.136Z,79.97
2017-12-10T12:09:49.887Z,80.41
2017-12-10T12:12:17.389Z,80.01
2017-12-10T12:14:44.919Z,78.92
2017-12-10T12:17:12.406Z,78.33
2017-12-10T12:19:39.932Z,79.05
2017-12-10T12:22:07.443Z,79.08
2017-12-10T12:24:34.946Z,78.28
2017-12-10T12:27:02.425Z,78.26
2017-12-10T12:29:29.926Z,78.21
2017-12-10T12:31:57.421Z,79.48
2017-12-10T12:34:24.897Z,80.14
2017-12-10T12:36:52.386Z,78.56
2017-12-10T12:39:19.860Z,79.12
2017-12-10T12:41:47.869Z,78.44
2017-12-10T12:44:15.397Z,78.23
2017-12-10T12:46:43.267Z,78.04
2017-12-10T12:49:10.745Z,78.65
2017-12-10T12:51:39.085Z,77.44
2017-12-10T12:54:06.593Z,77.39
2017-12-10T12:56:34.196Z,77.76
2017-12-10T12:59:01.695Z,78.03
2017-12-10T13:01:32.252Z,78.08
2017-12-10T13:03:59.737Z,77.55
2017-12-10T13:06:27.260Z,77.30
2017-12-10T13:08:54.767Z,77.52
2017-12-10T13:11:22.260Z,77.03
2017-12-10T13:13:49.766Z,77.22
2017-12-10T13:16:17.282Z,77.45
2017-12-10T13:18:44.765Z,77.73
2017-12-10T13:21:12.253Z,78.33
2017-12-10T13:23:39.753Z,77.67
2017-12-10T13:26:07.267Z,78.12
2017-12-10T13:28:34.759Z,78.11
2017-12-10T13:31:02.273Z,77.86
2017-12-10T13:33:29.788Z,78.07
2017-12-10T13:35:57.269Z,77.87
2017-12-10T13:38:24.799Z,78.25
2017-12-10T13:40:52.285Z,78.29
2017-12-10T13:43:19.779Z,78.00
2017-12-10T13:45:47.418Z,78.78
2017-12-10T13:48:14.889Z,78.35
2017-12-10T13:50:42.388Z,78.65
2017-12-10T13:53:09.872Z,79.25
2017-12-10T13:55:37.400Z,78.47
2017-12-10T13:58:04.877Z,79.58
2017-12-10T14:00:32.386Z,78.61
2017-12-10T14:02:59.872Z,79.06
2017-12-10T14:05:27.349Z,79.03
2017-12-10T14:07:54.843Z,79.34
2017-12-10T14:10:22.365Z,78.59
2017-12-10T14:12:49.876Z,78.55
2017-12-10T14:15:17.380Z,78.09
2017-12-10T14:17:44.858Z,79.90
2017-12-10T14:20:12.363Z,79.15
2017-12-10T14:22:39.825Z,78.57
2017-12-10T14:25:07.309Z,80.05
2017-12-10T14:27:34.809Z,80.99
2017-12-10T14:30:03.039Z,83.49
2017-12-10T14:32:30.539Z,86.54
2017-12-10T14:34:58.028Z,91.46
2017-12-10T14:37:25.822Z,95.17
2017-12-10T14:39:53.319Z,97.09
2017-12-10T14:42:20.797Z,98.29
2017-12-10T14:44:48.290Z,99.57
2017-12-10T14:47:15.784Z,99.73
2017-12-10T14:49:43.286Z,100.00
2017-12-10T14:52:10.779Z,100.00
2017-12-10T14:54:38.360Z,100.00
2017-12-10T14:57:05.865Z,100.00
2017-12-10T14:59:33.357Z,100.00
2017-12-10T15:02:00.860Z,100.00
2017-12-10T15:04:28.366Z,100.00
2017-12-10T15:06:55.859Z,100.00
2017-12-10T15:09:23.364Z,100.00
2017-12-10T15:11:50.915Z,100.00
2017-12-10T15:14:20.995Z,100.00
2017-12-10T15:16:48.517Z,100.00
2017-12-10T15:19:16.105Z,100.00
2017-12-10T15:21:43.623Z,100.00
2017-12-10T15:24:11.718Z,100.00
2017-12-10T15:26:40.713Z,100.00
2017-12-10T15:29:08.264Z,100.00
2017-12-10T15:31:35.845Z,100.00
2017-12-10T15:34:03.648Z,100.00
2017-12-10T15:36:31.167Z,100.00
2017-12-10T15:38:58.714Z,100.00
2017-12-10T15:41:26.278Z,100.00
2017-12-10T15:43:53.851Z,100.00
2017-12-10T15:46:21.351Z,100.00
2017-12-10T15:48:48.876Z,100.00
2017-12-10T15:51:16.533Z,100.00
2017-12-10T15:53:44.113Z,100.00
2017-12-10T15:56:11.732Z,100.00
2017-12-10T15:58:39.232Z,100.00
2017-12-10T16:01:06.839Z,100.00
2017-12-10T16:03:34.403Z,100.00
2017-12-10T16:06:01.930Z,99.90
2017-12-10T16:08:29.432Z,100.00
2017-12-10T16:10:56.924Z,100.00
2017-12-10T16:13:24.428Z,99.71
2017-12-10T16:15:53.327Z,99.83
2017-12-10T16:18:20.861Z,99.23
2017-12-10T16:20:48.375Z,99.57
2017-12-10T16:23:15.936Z,99.09
2017-12-10T16:25:43.437Z,99.40
2017-12-10T16:28:10.985Z,99.54
2017-12-10T16:30:38.500Z,99.15
2017-12-10T16:33:06.056Z,98.93
2017-12-10T16:35:33.567Z,98.96
2017-12-10T16:38:01.152Z,99.47
2017-12-10T16:40:28.733Z,99.15
2017-12-10T16:42:56.237Z,99.40
2017-12-10T16:45:23.717Z,98.90
2017-12-10T16:47:51.281Z,99.53
2017-12-10T16:50:18.885Z,99.54
2017-12-10T16:52:46.864Z,99.66
2017-12-10T16:55:14.433Z,99.41
2017-12-10T16:57:42.113Z,100.00
2017-12-10T17:00:09.652Z,100.00
2017-12-10T17:02:37.156Z,100.00
2017-12-10T17:05:04.819Z,100.00
2017-12-10T17:07:32.429Z,100.00
2017-12-10T17:10:00.343Z,100.00
2017-12-10T17:12:28.686Z,100.00
2017-12-10T17:14:56.215Z,100.00
2017-12-10T17:17:24.028Z,100.00
2017-12-10T17:19:51.513Z,100.00
2017-12-10T17:22:19.030Z,100.00
2017-12-10T17:24:46.583Z,100.00
2017-12-10T17:27:14.101Z,100.00
2017-12-10T17:29:41.628Z,100.00
2017-12-10T17:32:09.161Z,100.00
2017-12-10T17:34:36.661Z,100.00
2017-12-10T17:37:05.720Z,100.00
2017-12-10T17:39:33.401Z,100.00
2017-12-10T17:42:00.890Z,100.00
2017-12-10T17:44:28.402Z,100.00
2017-12-10T17:46:55.933Z,100.00
2017-12-10T17:49:23.538Z,100.00
2017-12-10T17:51:51.155Z,100.00
2017-12-10T17:54:18.762Z,100.00
2017-12-10T17:56:46.537Z,100.00
2017-12-10T17:59:14.250Z,100.00
2017-12-10T18:01:41.765Z,100.00
2017-12-10T18:04:09.272Z,100.00
2017-12-10T18:06:36.845Z,100.00
2017-12-10T18:09:04.455Z,100.00
2017-12-10T18:11:32.018Z,100.00
2017-12-10T18:13:59.543Z,100.00
2017-12-10T18:16:28.973Z,100.00
2017-12-10T18:18:56.561Z,100.00
2017-12-10T18:21:24.218Z,100.00
2017-12-10T18:23:51.766Z,100.00
2017-12-10T18:26:19.286Z,100.00
2017-12-10T18:28:46.879Z,100.00
2017-12-10T18:31:15.247Z,100.00
2017-12-10T18:33:42.737Z,100.00
2017-12-10T18:36:10.270Z,100.00
2017-12-10T18:38:37.796Z,100.00
2017-12-10T18:41:05.336Z,100.00
2017-12-10T18:43:32.882Z,100.00
2017-12-10T18:46:00.404Z,100.00
2017-12-10T18:48:27.949Z,100.00
2017-12-10T18:50:55.679Z,100.00
2017-12-10T18:53:26.683Z,100.00
2017-12-10T18:55:54.268Z,100.00
2017-12-10T18:58:22.153Z,100.00
2017-12-10T19:00:50.079Z,100.00
2017-12-10T19:03:17.620Z,100.00
2017-12-10T19:05:45.148Z,100.00
2017-12-10T19:08:12.712Z,100.00
2017-12-10T19:10:40.251Z,100.00
2017-12-10T19:13:07.800Z,100.00
2017-12-10T19:15:35.548Z,100.00
2017-12-10T19:18:03.180Z,100.00
2017-12-10T19:20:30.698Z,100.00
2017-12-10T19:22:58.235Z,100.00
2017-12-10T19:25:25.742Z,100.00
2017-12-10T19:27:53.397Z,100.00
2017-12-10T19:30:20.953Z,100.00
2017-12-10T19:32:48.474Z,100.00
2017-12-10T19:35:16.029Z,100.00
2017-12-10T19:37:43.604Z,100.00
2017-12-10T19:40:11.357Z,100.00
2017-12-10T19:42:38.955Z,100.00
2017-12-10T19:45:06.604Z,100.00
2017-12-10T19:47:34.572Z,100.00
2017-12-10T19:50:02.300Z,100.00
2017-12-10T19:52:29.964Z,99.79
2017-12-10T19:54:57.578Z,99.67
2017-12-10T19:57:25.084Z,99.18
2017-12-10T19:59:52.583Z,99.37
2017-12-10T20:02:20.093Z,98.86
2017-12-10T20:04:47.581Z,98.85
2017-12-10T20:07:15.125Z,99.01
2017-12-10T20:09:42.609Z,98.74
2017-12-10T20:12:10.115Z,99.15
2017-12-10T20:14:37.645Z,98.77
2017-12-10T20:17:05.151Z,98.47
2017-12-10T20:19:32.661Z,99.42
2017-12-10T20:22:00.992Z,98.43
2017-12-10T20:24:28.857Z,99.18
2017-12-10T20:26:56.351Z,98.96
2017-12-10T20:29:23.864Z,99.69
2017-12-10T20:31:51.346Z,99.02
2017-12-10T20:34:18.884Z,98.97
2017-12-10T20:36:46.389Z,99.34
2017-12-10T20:39:13.883Z,99.45
2017-12-10T20:41:41.406Z,99.77
2017-12-10T20:44:09.134Z,99.79
2017-12-10T20:46:36.703Z,100.00
2017-12-10T20:49:04.266Z,100.00
2017-12-10T20:51:31.785Z,99.71
2017-12-10T20:53:59.256Z,98.59
2017-12-10T20:56:26.769Z,98.19
2017-12-10T20:58:54.283Z,97.74
2017-12-10T21:01:21.804Z,97.95
2017-12-10T21:03:49.310Z,97.28
2017-12-10T21:06:16.832Z,96.87
2017-12-10T21:08:44.340Z,97.03
2017-12-10T21:11:11.848Z,96.76
2017-12-10T21:13:39.331Z,96.12
2017-12-10T21:16:06.887Z,94.78
2017-12-10T21:18:34.406Z,95.31
2017-12-10T21:21:01.908Z,94.45
2017-12-10T21:23:29.436Z,94.45
2017-12-10T21:25:56.927Z,93.64
2017-12-10T21:28:24.471Z,93.69
2017-12-10T21:30:51.987Z,93.29
2017-12-10T21:33:19.511Z,93.23
2017-12-10T21:35:47.045Z,93.46
2017-12-10T21:38:14.547Z,93.20
2017-12-10T21:40:42.051Z,93.77
2017-12-10T21:43:09.588Z,93.79
2017-12-10T21:45:37.087Z,93.24
2017-12-10T21:48:04.589Z,92.62
2017-12-10T21:50:32.162Z,92.94
2017-12-10T21:52:59.638Z,91.18
2017-12-10T21:55:27.160Z,91.38
2017-12-10T21:57:54.662Z,90.64
2017-12-10T22:00:22.177Z,92.16
2017-12-10T22:02:49.693Z,90.76
2017-12-10T22:05:17.213Z,90.17
2017-12-10T22:07:44.809Z,89.46
2017-12-10T22:10:12.316Z,89.70
2017-12-10T22:12:39.862Z,89.16
2017-12-10T22:15:07.349Z,88.66
2017-12-10T22:17:34.867Z,89.97
2017-12-10T22:20:02.345Z,90.58
2017-12-10T22:22:29.824Z,89.93
2017-12-10T22:24:57.321Z,89.01
2017-12-10T22:27:24.837Z,89.97
2017-12-10T22:29:52.325Z,87.65
2017-12-10T22:32:19.808Z,87.93
2017-12-10T22:34:47.305Z,89.40
2017-12-10T22:37:14.807Z,87.50
2017-12-10T22:39:42.302Z,88.62
2017-12-10T22:42:09.789Z,88.31
2017-12-10T22:44:37.272Z,88.64
2017-12-10T22:47:04.778Z,88.73
2017-12-10T22:49:32.257Z,88.10
2017-12-10T22:51:59.739Z,87.15
2017-12-10T22:54:27.228Z,88.33
2017-12-10T22:56:54.725Z,87.17
2017-12-10T22:59:22.223Z,87.24
2017-12-10T23:01:49.738Z,87.84
2017-12-10T23:04:17.236Z,87.32
2017-12-10T23:06:44.822Z,86.40
2017-12-10T23:09:12.292Z,87.32
2017-12-10T23:11:39.773Z,87.56
2017-12-10T23:14:07.276Z,87.66
2017-12-10T23:16:34.888Z,86.80
2017-12-10T23:19:02.420Z,87.08
2017-12-10T23:21:29.927Z,87.13
2017-12-10T23:23:57.427Z,87.31
2017-12-10T23:26:24.892Z,88.23
2017-12-10T23:28:52.388Z,87.89
2017-12-10T23:31:19.878Z,87.16
2017-12-10T23:33:47.375Z,87.75
2017-12-10T23:36:14.967Z,88.98
2017-12-10T23:38:42.457Z,88.39
2017-12-10T23:41:09.957Z,89.88
2017-12-10T23:43:37.479Z,90.29
2017-12-10T23:46:04.992Z,90.90
2017-12-10T23:48:32.487Z,89.82
2017-12-10T23:50:59.995Z,90.41
2017-12-10T23:53:27.473Z,90.16
2017-12-10T23:55:54.997Z,89.72
2017-12-10T23:58:22.505Z,89.29
